Terminal Aerodrome Forecast
Issued by NWS

Home | Current Version | Previous Version | Text Only | Print | Product List | Glossary Off
Versions: 1 2 3 4 5 6 7 8 9 10 11 12 13 14 15 16 17 18

000
FTUS43 KICT 261720
TAFHUT
TAF
KHUT 261720Z 2618/2718 09005KT P6SM BKN050
     FM270000 12005KT P6SM SCT250
     FM270600 11004KT P6SM BKN120
     FM271000 VRB03KT P6SM BKN060
     FM271300 14005KT P6SM BKN045=

USA.gov is the U.S. government's official web portal to all federal, state and local government web resources and services.